Flight Track Log - Related Links

Times and Time Zones

All times are in EDT time to prevent confusion due to time zone crossing. See the UAL1177 flight status page for this flight to view local times or setup timezone preferences in your user account.

Time Position Orientation Groundspeed Altitude Reporting Facility
EDT Latitude Longitude Course Direction KTS MPH feet Rate Location/Type
Sun 02:25:34 PM 29.9614 -95.3411 95° East 158 182 900  Level Houston Center
Sun 02:27:06 PM 29.9061 -95.2636 129° Southeast 243 280 4,900 2,784 Climbing Houston Center
Sun 02:28:00 PM 29.9325 -94.9537 102° East  Level FlightAware Approximate
Sun 02:28:07 PM 29.8619 -95.1942 126° Southeast 281 323 8,000  Level Houston Center
Sun 02:29:00 PM 29.9134 -94.8273 95° East  Level FlightAware Approximate
Sun 02:29:11 PM 29.8419 -95.1053 105° East 301 346 11,100  Level Houston Center
Sun 02:30:00 PM 29.9028 -94.6995 95° East  Level FlightAware Approximate
Sun 02:30:13 PM 29.8447 -94.9947 88° East 341 392 13,900  Level Houston Center
Sun 02:31:15 PM 29.8486 -94.8772 88° East 362 417 17,000 2,780 Climbing Houston Center
Sun 02:32:16 PM 29.8514 -94.7581 88° East 370 426 19,600 2,390 Climbing Houston Center
Sun 02:33:18 PM 29.8556 -94.6303 88° East 395 455 21,900 2,226 Climbing Houston Center
Sun 02:34:20 PM 29.8592 -94.4989 88° East 409 471 24,200 2,341 Climbing Houston Center
Sun 02:35:21 PM 29.8628 -94.3361 88° East 421 484 26,700 2,049 Climbing Houston Center
Sun 02:36:23 PM 29.8592 -94.1953 92° East 434 499 28,400 1,645 Climbing Houston Center
Sun 02:37:25 PM 29.8536 -94.0544 93° East 442 509 30,100 1,854 Climbing Houston Center
Sun 02:38:26 PM 29.8683 -93.9117 83° East 451 519 32,200 1,415 Climbing Houston Center
Sun 02:39:28 PM 29.8825 -93.7697 83° East 448 516 33,000 339 Climbing Houston Center
Sun 02:40:30 PM 29.8967 -93.6297 83° East 445 512 32,900  Descending Houston Center
Sun 02:41:32 PM 29.9128 -93.4606 84° East 444 511 33,000 49 Climbing Houston Center
Sun 02:42:33 PM 29.9281 -93.3189 83° East 450 518 33,000  Level Houston Center
Sun 02:43:35 PM 29.9425 -93.1794 83° East 445 512 33,000 -48 Level Houston Center
Sun 02:44:37 PM 29.9572 -93.0386 83° East 445 512 32,900  Descending Houston Center
Sun 02:45:38 PM 29.9714 -92.8969 83° East 444 511 33,000  Climbing Houston Center
Sun 02:46:40 PM 29.9817 -92.7561 85° East 444 511 32,900 -48 Descending Houston Center
Sun 02:47:42 PM 29.9961 -92.5872 84° East 445 512 32,900 -484 Level Houston Center
Sun 02:48:44 PM 30.0069 -92.4464 85° East 443 510 31,900 -1,268 Descending Houston Center
Sun 02:49:45 PM 30.0186 -92.3022 85° East 452 520 30,300 -2,537 Descending Houston Center
Sun 02:50:47 PM 30.0303 -92.1539 85° East 463 533 26,700 -3,048 Descending Houston Center
Sun 02:51:49 PM 30.0406 -92.0036 85° East 470 541 24,000 -2,537 Descending Houston Center
Sun 02:52:50 PM 30.0517 -91.8611 85° East 450 518 21,500 -2,439 Descending Houston Center
Sun 02:53:52 PM 30.0694 -91.7178 82° East 429 494 19,000 -1,694 Descending Houston Center
Sun 02:54:54 PM 30.0917 -91.5928 78° East 402 463 18,000 -968 Descending Houston Center
Sun 02:55:56 PM 30.1108 -91.4453 81° East 390 449 17,000 -976 Descending Houston Center
Sun 02:56:57 PM 30.1114 -91.3244 90° East 377 434 16,000 -1,273 Descending Houston Center
Sun 02:58:08 PM 30.1183 -91.1903 87° East 355 409 14,200 -1,645 Descending Houston Center
Sun 02:59:01 PM 30.1300 -91.1014 81° East 346 398 12,600 -2,035 Descending Houston Center
Sun 03:00:03 PM 30.1144 -90.9922 99° East 346 398 10,300 -1,756 Descending Houston Center
Sun 03:01:04 PM 30.1008 -90.8981 99° East 304 350 9,000 -1,415 Descending Houston Center
Sun 03:02:06 PM 30.0869 -90.8072 100° East 293 337 7,400 -1,839 Descending Houston Center
Sun 03:03:08 PM 30.0808 -90.7006 94° East 285 328 5,200 -1,707 Descending Houston Center
Sun 03:04:09 PM 30.0622 -90.6164 104° East 276 318 3,900 -927 Descending Houston Center
Sun 03:05:11 PM 30.0464 -90.5342 103° East 271 312 3,300 -581 Descending Houston Center

Login

Don't have an account? Register now (free) for customized features, flight alerts, and more!